Time;durP1;ratioP1;P1;durP2;ratioP2;P2;SDS_P1;SDS_P2;PMS_P1;PMS_P2;Temp;Humidity;BMP_temperature;BMP_pressure;BME280_temperature;BME280_humidity;BME280_pressure;Samples;Min_cycle;Max_cycle;Signal;HPM_P1;HPM_P2
2023/04/27 00:00:02;;;;;;;7.85;5.18;;;6.70;93.30;;;;;;5104312;28;20200;-92
2023/04/27 00:02:29;;;;;;;8.88;5.13;;;6.70;93.10;;;;;;5100318;28;20219;-91
2023/04/27 00:04:57;;;;;;;8.02;5.20;;;6.60;93.00;;;;;;5101315;28;20220;-93
2023/04/27 00:07:25;;;;;;;7.00;5.20;;;6.50;93.20;;;;;;5104266;28;20311;-92
2023/04/27 00:09:52;;;;;;;10.10;5.20;;;6.50;93.50;;;;;;5105206;28;20195;-93
2023/04/27 00:12:20;;;;;;;8.88;5.25;;;6.60;93.50;;;;;;5104344;28;20283;-93
2023/04/27 00:14:47;;;;;;;8.57;4.95;;;6.50;93.40;;;;;;5106365;28;20215;-93
2023/04/27 00:17:15;;;;;;;8.20;4.80;;;6.60;93.50;;;;;;5107541;28;20212;-93
2023/04/27 00:19:42;;;;;;;7.00;5.25;;;6.60;93.50;;;;;;5097523;28;20192;-92
2023/04/27 00:22:10;;;;;;;7.95;5.07;;;6.60;93.60;;;;;;5106652;28;20264;-92
2023/04/27 00:24:37;;;;;;;10.25;4.93;;;6.70;93.60;;;;;;5109053;28;20196;-92
2023/04/27 00:27:04;;;;;;;8.80;5.00;;;6.70;94.10;;;;;;5109845;28;20227;-93
2023/04/27 00:29:33;;;;;;;8.50;4.60;;;6.60;94.40;;;;;;5104661;28;20192;-92
2023/04/27 00:32:00;;;;;;;11.13;5.13;;;6.70;94.20;;;;;;5092073;28;20209;-91
2023/04/27 00:34:27;;;;;;;9.05;5.00;;;6.60;94.30;;;;;;5105709;28;20642;-93
2023/04/27 00:36:54;;;;;;;6.60;4.97;;;6.60;94.40;;;;;;5108821;28;20203;-93
2023/04/27 00:39:21;;;;;;;7.03;5.20;;;6.60;94.80;;;;;;5087482;28;20220;-92
2023/04/27 00:41:48;;;;;;;10.38;4.95;;;6.60;95.10;;;;;;5107370;28;20260;-93
2023/04/27 00:44:23;;;;;;;7.00;4.65;;;6.60;94.80;;;;;;5086600;28;20200;-90
2023/04/27 00:46:52;;;;;;;9.90;4.80;;;6.70;94.40;;;;;;5109568;28;20208;-92
2023/04/27 00:49:19;;;;;;;7.78;4.70;;;6.70;94.40;;;;;;5101735;28;20226;-93
2023/04/27 00:51:47;;;;;;;10.07;4.72;;;6.70;94.00;;;;;;5101760;28;20598;-93
2023/04/27 00:54:15;;;;;;;7.93;5.07;;;6.70;94.00;;;;;;5106385;28;20199;-92
2023/04/27 00:56:42;;;;;;;6.40;4.78;;;6.70;94.30;;;;;;5103230;28;20223;-93
2023/04/27 00:59:09;;;;;;;16.75;5.18;;;6.70;94.50;;;;;;5105574;28;20233;-92
2023/04/27 01:01:36;;;;;;;8.13;5.30;;;6.70;94.50;;;;;;5098131;28;20197;-91
2023/04/27 01:04:05;;;;;;;9.93;4.95;;;6.70;94.50;;;;;;5101476;28;20200;-92
2023/04/27 01:06:32;;;;;;;10.65;4.57;;;6.70;94.40;;;;;;5108244;28;20272;-92
2023/04/27 01:08:59;;;;;;;11.40;5.05;;;6.70;94.90;;;;;;5111581;28;20248;-89
2023/04/27 01:11:26;;;;;;;7.38;5.03;;;6.70;94.80;;;;;;5104948;28;20201;-94
2023/04/27 01:13:55;;;;;;;6.05;4.57;;;6.70;94.50;;;;;;5092295;28;20211;-94
2023/04/27 01:16:23;;;;;;;5.82;4.68;;;6.70;94.30;;;;;;5110752;28;20222;-92
2023/04/27 01:18:50;;;;;;;6.38;5.00;;;6.80;94.00;;;;;;5109190;28;20240;-92
2023/04/27 01:21:18;;;;;;;9.18;4.68;;;6.80;93.90;;;;;;5090679;28;20282;-92
2023/04/27 01:23:47;;;;;;;8.15;4.50;;;6.80;93.90;;;;;;5104311;28;20193;-92
2023/04/27 01:26:15;;;;;;;7.05;4.90;;;6.80;94.40;;;;;;5091305;28;20201;-92
2023/04/27 01:28:42;;;;;;;7.82;4.90;;;6.90;94.10;;;;;;5105075;28;20213;-92
2023/04/27 01:31:11;;;;;;;6.60;5.10;;;6.80;94.10;;;;;;5104257;28;20208;-93
2023/04/27 01:33:38;;;;;;;10.40;5.10;;;6.90;94.20;;;;;;5103116;28;20197;-93
2023/04/27 01:36:06;;;;;;;8.70;5.05;;;6.90;94.50;;;;;;5106778;28;20259;-93
2023/04/27 01:38:33;;;;;;;7.63;4.70;;;7.00;94.20;;;;;;5102657;28;20230;-93
2023/04/27 01:41:04;;;;;;;7.45;4.93;;;7.00;94.00;;;;;;5103283;28;20205;-92
2023/04/27 01:43:32;;;;;;;7.15;4.80;;;6.90;93.90;;;;;;5105952;28;20594;-92
2023/04/27 01:46:06;;;;;;;7.95;4.60;;;6.90;93.70;;;;;;5101184;28;20208;-93
2023/04/27 01:48:34;;;;;;;9.02;5.22;;;6.90;93.90;;;;;;5104278;28;20242;-93
2023/04/27 01:51:01;;;;;;;8.18;4.82;;;6.80;93.90;;;;;;5104128;28;20264;-90
2023/04/27 01:53:28;;;;;;;9.95;4.60;;;6.80;93.90;;;;;;5111327;28;20203;-91
2023/04/27 01:55:55;;;;;;;8.48;4.82;;;6.80;94.00;;;;;;5103576;28;20220;-92
2023/04/27 01:58:23;;;;;;;8.40;5.07;;;6.70;94.20;;;;;;5107525;28;20212;-93
2023/04/27 02:00:50;;;;;;;8.00;5.07;;;6.70;94.30;;;;;;5101781;28;20261;-92
2023/04/27 02:03:17;;;;;;;8.27;4.90;;;6.80;94.70;;;;;;5106579;28;20184;-89
2023/04/27 02:05:45;;;;;;;7.13;4.80;;;6.70;94.50;;;;;;5108355;28;20183;-89
2023/04/27 02:08:14;;;;;;;5.72;4.78;;;6.80;94.40;;;;;;5112553;28;20181;-88
2023/04/27 02:10:41;;;;;;;6.47;4.50;;;6.90;94.10;;;;;;5110725;28;20623;-93
2023/04/27 02:13:08;;;;;;;9.23;5.13;;;7.00;94.20;;;;;;5108523;28;20188;-92
2023/04/27 02:15:37;;;;;;;8.05;4.80;;;7.00;93.80;;;;;;5104067;28;20197;-93
2023/04/27 02:18:07;;;;;;;6.22;4.80;;;7.00;93.90;;;;;;5099402;28;20220;-92
2023/04/27 02:20:35;;;;;;;8.45;4.70;;;6.90;94.00;;;;;;5104344;28;20615;-93
2023/04/27 02:23:02;;;;;;;6.72;4.82;;;6.80;94.00;;;;;;5102685;28;20278;-89
2023/04/27 02:25:29;;;;;;;7.32;4.85;;;6.70;93.90;;;;;;5099863;28;20200;-92
2023/04/27 02:27:56;;;;;;;7.30;5.28;;;6.60;94.10;;;;;;5083950;28;20242;-92
2023/04/27 02:30:23;;;;;;;10.27;5.22;;;6.40;94.40;;;;;;5093706;28;20228;-92
2023/04/27 02:32:54;;;;;;;9.05;5.00;;;6.40;94.90;;;;;;5104721;28;20211;-92
2023/04/27 02:35:21;;;;;;;8.52;5.63;;;6.30;95.00;;;;;;5105281;28;20197;-92
2023/04/27 02:37:48;;;;;;;7.43;4.70;;;6.30;95.40;;;;;;5107318;28;20197;-92
2023/04/27 02:40:15;;;;;;;9.27;5.00;;;6.40;95.20;;;;;;5104152;28;20256;-92
2023/04/27 02:42:42;;;;;;;7.55;4.88;;;6.50;94.80;;;;;;5107788;28;20199;-93
2023/04/27 02:45:09;;;;;;;7.90;5.30;;;6.50;94.60;;;;;;5106427;28;20199;-93
2023/04/27 02:47:36;;;;;;;10.95;5.15;;;6.40;94.50;;;;;;5108626;28;20193;-91
2023/04/27 02:50:06;;;;;;;8.52;5.50;;;6.30;95.00;;;;;;5116812;28;20208;-92
2023/04/27 02:52:33;;;;;;;8.02;5.18;;;6.30;95.40;;;;;;5107188;28;20196;-92
2023/04/27 02:55:00;;;;;;;9.45;5.38;;;6.30;95.40;;;;;;5106816;28;20271;-94
2023/04/27 02:57:28;;;;;;;8.30;4.43;;;6.30;95.10;;;;;;5097296;28;20193;-93
2023/04/27 02:59:54;;;;;;;5.47;4.93;;;6.20;95.30;;;;;;5099998;28;20217;-93
2023/04/27 03:02:21;;;;;;;9.80;5.18;;;6.10;95.30;;;;;;5105528;28;20193;-93
2023/04/27 03:04:53;;;;;;;9.27;5.27;;;5.90;95.50;;;;;;5101782;28;20198;-93
2023/04/27 03:07:21;;;;;;;6.38;5.05;;;5.90;96.10;;;;;;5099745;28;20211;-91
2023/04/27 03:09:48;;;;;;;6.73;4.97;;;6.00;96.30;;;;;;5109244;28;20193;-93
2023/04/27 03:12:15;;;;;;;6.50;4.78;;;6.10;95.90;;;;;;5110379;28;20205;-92
2023/04/27 03:14:42;;;;;;;6.73;5.27;;;6.00;95.50;;;;;;5100945;28;20193;-90
2023/04/27 03:17:09;;;;;;;8.27;5.23;;;5.90;96.00;;;;;;5092626;28;20205;-90
2023/04/27 03:19:36;;;;;;;6.93;5.40;;;5.80;96.40;;;;;;5098823;28;20308;-92
2023/04/27 03:22:02;;;;;;;7.80;5.57;;;5.70;96.90;;;;;;5105805;28;20669;-91
2023/04/27 03:24:32;;;;;;;7.47;5.60;;;5.60;97.20;;;;;;5101518;28;20196;-88
2023/04/27 03:26:58;;;;;;;9.27;6.03;;;5.60;97.80;;;;;;5103361;28;20209;-88
2023/04/27 03:29:25;;;;;;;9.88;5.88;;;5.60;97.80;;;;;;5102820;28;20192;-93
2023/04/27 03:31:52;;;;;;;7.93;5.70;;;5.60;98.00;;;;;;5103465;28;20193;-89
2023/04/27 03:34:20;;;;;;;9.97;5.87;;;5.70;98.30;;;;;;5111241;28;20199;-93
2023/04/27 03:36:47;;;;;;;7.00;5.10;;;5.70;98.30;;;;;;5102174;28;20226;-92
2023/04/27 03:39:14;;;;;;;7.57;5.40;;;5.70;98.30;;;;;;5105688;28;20220;-93
2023/04/27 03:41:42;;;;;;;8.90;5.20;;;5.80;98.20;;;;;;5106573;28;20191;-90
2023/04/27 03:44:09;;;;;;;8.05;5.25;;;6.00;97.90;;;;;;5104877;28;20199;-92
2023/04/27 03:46:36;;;;;;;8.20;5.43;;;6.10;97.30;;;;;;5106639;28;20227;-93
2023/04/27 03:49:03;;;;;;;7.13;5.50;;;6.10;97.10;;;;;;5101474;28;20566;-93
2023/04/27 03:51:30;;;;;;;7.68;5.55;;;6.10;97.60;;;;;;5100511;28;20197;-92
2023/04/27 03:53:57;;;;;;;9.27;6.10;;;6.00;97.80;;;;;;5104371;28;20204;-94
2023/04/27 03:56:24;;;;;;;8.25;4.93;;;6.00;97.90;;;;;;5095651;28;20205;-91
2023/04/27 03:58:53;;;;;;;7.15;5.43;;;6.10;97.90;;;;;;5162071;22;20228;-90
2023/04/27 04:01:20;;;;;;;7.27;5.10;;;6.10;97.80;;;;;;5655318;22;20217;-89
2023/04/27 04:34:53;;;;;;;6.32;5.53;;;6.50;97.10;;;;;;5750134;22;20234;-91
2023/04/27 04:45:19;;;;;;;10.68;7.18;;;7.00;95.50;;;;;;5304574;22;20238;-92
2023/04/27 04:52:58;;;;;;;9.77;5.65;;;6.90;95.90;;;;;;6012980;22;20256;-92
2023/04/27 04:58:00;;;;;;;10.30;5.35;;;6.90;95.80;;;;;;5153757;22;20241;-92
2023/04/27 05:00:27;;;;;;;11.63;4.75;;;7.00;95.50;;;;;;5043096;28;20231;-91
2023/04/27 05:02:54;;;;;;;9.63;5.00;;;6.90;95.50;;;;;;5028238;28;20195;-91
2023/04/27 05:05:43;;;;;;;8.80;5.43;;;6.80;95.90;;;;;;5035046;28;20550;-90
2023/04/27 05:08:12;;;;;;;9.07;4.35;;;6.80;96.40;;;;;;5501390;22;20229;-92
2023/04/27 05:10:38;;;;;;;6.97;5.15;;;6.80;96.10;;;;;;5088846;28;20197;-93
2023/04/27 05:13:05;;;;;;;6.32;4.95;;;6.90;96.10;;;;;;5092531;28;20201;-91
2023/04/27 05:18:07;;;;;;;10.25;5.63;;;7.00;96.00;;;;;;5262406;22;20236;-92
2023/04/27 05:20:35;;;;;;;9.00;4.88;;;7.20;95.50;;;;;;5240866;22;20248;-93
2023/04/27 05:23:02;;;;;;;12.15;4.70;;;7.40;95.10;;;;;;5068267;28;20203;-93
2023/04/27 05:25:31;;;;;;;7.57;5.05;;;7.70;94.60;;;;;;5069449;28;20205;-91
2023/04/27 05:27:58;;;;;;;8.90;5.00;;;7.70;93.80;;;;;;5147511;22;20225;-92
2023/04/27 05:30:26;;;;;;;7.13;4.90;;;7.90;93.50;;;;;;5240534;22;20222;-90
2023/04/27 05:32:53;;;;;;;7.20;5.22;;;7.80;93.70;;;;;;5317594;22;20199;-92
2023/04/27 05:35:19;;;;;;;9.98;5.38;;;7.80;93.60;;;;;;5454206;22;20244;-92
2023/04/27 05:37:46;;;;;;;6.70;4.80;;;7.80;93.50;;;;;;5099878;28;20185;-92
2023/04/27 05:40:15;;;;;;;8.95;4.93;;;8.00;93.00;;;;;;5201581;22;20230;-92
2023/04/27 05:45:19;;;;;;;6.80;5.30;;;8.20;92.30;;;;;;5727650;22;20213;-92
2023/04/27 05:50:21;;;;;;;8.43;5.38;;;8.10;92.70;;;;;;5434917;22;20214;-92
2023/04/27 05:52:48;;;;;;;8.10;5.10;;;8.20;92.80;;;;;;5564623;22;20236;-93
2023/04/27 05:55:15;;;;;;;9.10;5.30;;;8.30;92.20;;;;;;5052195;28;20300;-93
2023/04/27 05:57:42;;;;;;;7.90;5.22;;;8.30;92.20;;;;;;5039765;28;20199;-94
2023/04/27 06:28:48;;;;;;;10.25;6.28;;;9.70;86.70;;;;;;5999282;22;21420;-93
2023/04/27 06:33:49;;;;;;;8.63;5.75;;;9.70;86.60;;;;;;5049620;22;20401;-91
2023/04/27 06:51:50;;;;;;;10.80;6.13;;;9.90;83.10;;;;;;5817815;22;20250;-93
2023/04/27 06:54:17;;;;;;;8.95;5.57;;;10.20;78.90;;;;;;6053982;22;20211;31
2023/04/27 06:56:44;;;;;;;8.88;5.85;;;10.30;77.10;;;;;;5839315;22;21088;-93
2023/04/27 07:01:46;;;;;;;9.90;5.43;;;10.60;76.70;;;;;;5743818;22;20237;-92
2023/04/27 07:04:13;;;;;;;9.98;6.15;;;10.90;74.00;;;;;;5903623;22;20219;-93
2023/04/27 07:11:46;;;;;;;6.63;5.47;;;11.10;70.50;;;;;;6041842;22;20224;-92
2023/04/27 07:16:48;;;;;;;9.40;5.72;;;11.20;61.50;;;;;;5982347;22;20246;-92
2023/04/27 07:27:02;;;;;;;7.00;5.78;;;11.10;55.50;;;;;;5936279;22;20894;-92
2023/04/27 07:32:06;;;;;;;8.43;5.40;;;11.30;58.80;;;;;;5310905;22;20236;-93
2023/04/27 07:34:33;;;;;;;7.68;5.60;;;11.20;60.20;;;;;;5087569;28;20205;-92
2023/04/27 07:44:49;;;;;;;10.68;5.20;;;11.60;59.60;;;;;;5749369;22;20839;-93
2023/04/27 07:47:16;;;;;;;7.78;4.70;;;11.90;54.20;;;;;;5881257;22;20209;-92
2023/04/27 07:49:46;;;;;;;6.78;4.20;;;12.10;50.10;;;;;;5211078;22;20302;-93
2023/04/27 07:52:16;;;;;;;5.68;4.80;;;12.30;49.90;;;;;;5082404;28;20235;-93
2023/04/27 07:54:43;;;;;;;6.90;4.70;;;12.40;49.00;;;;;;5088200;28;20202;-92
2023/04/27 07:57:12;;;;;;;5.50;4.30;;;12.60;44.70;;;;;;5072572;28;20193;-92
2023/04/27 08:05:18;;;;;;;8.48;4.55;;;12.40;49.00;;;;;;5924238;22;20273;-93
2023/04/27 08:33:33;;;;;;;8.48;4.32;;;13.30;37.70;;;;;;5070240;28;20222;-92
2023/04/27 08:36:00;;;;;;;6.90;4.68;;;13.40;36.60;;;;;;5063446;28;20186;-93
2023/04/27 08:38:27;;;;;;;9.27;4.85;;;13.60;37.70;;;;;;5215208;22;20305;-93
2023/04/27 08:40:54;;;;;;;9.48;4.80;;;13.50;37.80;;;;;;5049353;28;20218;-92
2023/04/27 08:43:21;;;;;;;10.90;4.57;;;13.70;37.80;;;;;;5053731;28;20190;-93
2023/04/27 08:48:31;;;;;;;8.90;4.72;;;14.20;34.40;;;;;;5055075;28;20416;-94
2023/04/27 08:51:01;;;;;;;7.25;5.00;;;14.30;33.40;;;;;;5058829;28;20267;-93
2023/04/27 08:53:30;;;;;;;7.35;5.40;;;14.20;32.00;;;;;;5116212;22;20253;-92
2023/04/27 08:58:38;;;;;;;7.28;5.13;;;14.20;32.00;;;;;;5326975;22;20233;-92
2023/04/27 09:03:48;;;;;;;7.38;4.55;;;15.20;30.00;;;;;;5060893;28;20201;-92
2023/04/27 09:06:16;;;;;;;8.57;4.68;;;15.50;28.30;;;;;;5064742;28;20198;-94
2023/04/27 09:08:47;;;;;;;5.97;4.93;;;15.70;28.40;;;;;;5066630;28;20273;-95
2023/04/27 09:11:15;;;;;;;8.80;5.00;;;15.50;26.20;;;;;;5061714;28;20182;-93
2023/04/27 09:14:03;;;;;;;8.50;5.47;;;15.80;28.50;;;;;;5069366;28;20194;-92
2023/04/27 09:16:31;;;;;;;6.80;4.88;;;16.80;21.80;;;;;;5064122;28;20197;-94
2023/04/27 09:19:04;;;;;;;6.97;4.82;;;17.20;20.10;;;;;;5068586;28;20284;-94
2023/04/27 09:21:31;;;;;;;6.68;4.95;;;17.20;20.20;;;;;;5062380;28;20205;-94
2023/04/27 09:23:58;;;;;;;7.85;5.03;;;17.50;20.20;;;;;;5057425;28;20205;-94
2023/04/27 09:26:26;;;;;;;9.48;4.80;;;17.70;20.70;;;;;;5063595;28;20194;-94
2023/04/27 09:28:56;;;;;;;7.95;5.00;;;17.50;20.00;;;;;;5065228;28;20182;-92
2023/04/27 09:31:31;;;;;;;5.75;4.53;;;17.80;19.30;;;;;;5071985;28;20200;-93
2023/04/27 09:33:58;;;;;;;11.13;5.05;;;18.40;17.00;;;;;;5070701;28;20192;-93
2023/04/27 09:36:26;;;;;;;10.30;4.45;;;17.90;19.10;;;;;;5070325;28;20184;-93
2023/04/27 09:38:53;;;;;;;6.03;4.50;;;17.30;20.60;;;;;;5066761;28;20228;-94
2023/04/27 09:41:20;;;;;;;7.65;4.35;;;17.00;20.10;;;;;;5071737;28;20296;-94
2023/04/27 09:43:47;;;;;;;8.15;4.60;;;16.80;18.90;;;;;;5057105;28;20198;-93
2023/04/27 09:46:15;;;;;;;7.30;4.45;;;16.90;21.40;;;;;;5064908;28;20220;-92
2023/04/27 09:48:42;;;;;;;6.40;4.43;;;17.30;18.20;;;;;;5065980;28;20232;-94
2023/04/27 09:51:09;;;;;;;7.72;4.68;;;16.60;18.50;;;;;;5140895;22;21760;-95
2023/04/27 09:56:38;;;;;;;5.47;4.18;;;15.80;19.10;;;;;;5101649;28;20227;-92
2023/04/27 09:59:30;;;;;;;5.95;4.30;;;16.00;18.90;;;;;;5105078;28;20235;-93
2023/04/27 10:04:52;;;;;;;8.48;4.10;;;16.10;19.70;;;;;;5234200;22;20248;-94
2023/04/27 10:07:19;;;;;;;6.18;3.90;;;15.80;20.20;;;;;;5057272;28;20190;-93
2023/04/27 10:09:50;;;;;;;9.18;4.13;;;16.10;20.20;;;;;;5055440;28;20195;-93
2023/04/27 10:12:19;;;;;;;7.53;3.90;;;16.80;20.00;;;;;;5048434;28;20230;-93
2023/04/27 10:14:51;;;;;;;5.10;3.95;;;17.00;18.40;;;;;;5043040;28;20178;-92
2023/04/27 10:17:18;;;;;;;8.15;4.18;;;16.80;18.90;;;;;;5062345;28;20233;-93
2023/04/27 10:22:39;;;;;;;4.25;3.85;;;16.60;19.20;;;;;;5065688;28;20216;-96
2023/04/27 10:27:59;;;;;;;5.57;3.88;;;15.60;20.30;;;;;;5054073;28;20218;-95
2023/04/27 10:30:34;;;;;;;6.32;4.38;;;15.50;22.90;;;;;;5056823;28;20206;-95
2023/04/27 10:33:07;;;;;;;8.95;4.35;;;15.60;24.10;;;;;;5050054;28;20251;-94
2023/04/27 10:38:40;;;;;;;4.20;3.80;;;15.50;22.20;;;;;;5070591;28;20256;-93
2023/04/27 10:43:55;;;;;;;5.53;3.67;;;15.50;24.00;;;;;;5055242;28;20232;-92
2023/04/27 10:46:22;;;;;;;4.13;3.63;;;15.70;21.10;;;;;;5070797;28;20202;-92
2023/04/27 10:48:49;;;;;;;6.10;3.85;;;16.00;20.30;;;;;;5074503;28;20185;-92
2023/04/27 10:51:16;;;;;;;6.25;3.55;;;16.20;19.80;;;;;;5069331;28;20217;-92
2023/04/27 10:53:43;;;;;;;6.15;3.67;;;16.50;20.70;;;;;;5067662;28;20194;-92
2023/04/27 10:58:52;;;;;;;5.78;4.40;;;16.90;21.20;;;;;;5072998;28;20659;-94
2023/04/27 11:01:26;;;;;;;6.35;3.90;;;16.30;20.40;;;;;;5060508;28;20218;-94
2023/04/27 11:03:55;;;;;;;5.68;3.30;;;16.20;20.30;;;;;;5060483;28;20230;-94
2023/04/27 11:06:23;;;;;;;5.95;3.58;;;16.40;22.60;;;;;;5059096;28;20276;-96
2023/04/27 11:08:49;;;;;;;3.58;3.28;;;16.10;20.90;;;;;;5064599;28;20255;-92
2023/04/27 11:11:19;;;;;;;6.10;3.40;;;16.10;20.30;;;;;;5063604;28;20634;-94
2023/04/27 11:13:48;;;;;;;3.97;3.25;;;16.30;20.00;;;;;;5068476;28;20218;-92
2023/04/27 11:16:18;;;;;;;6.13;3.45;;;16.30;21.00;;;;;;5064435;28;20194;-96
2023/04/27 11:19:06;;;;;;;5.47;3.65;;;16.10;20.60;;;;;;5063320;28;20238;-93
2023/04/27 11:21:33;;;;;;;5.70;3.50;;;15.90;21.90;;;;;;5064180;28;20218;-95
2023/04/27 11:24:04;;;;;;;5.53;3.38;;;15.90;22.40;;;;;;5064360;28;20204;-95
2023/04/27 11:31:57;;;;;;;4.50;3.38;;;15.80;23.20;;;;;;5067796;28;20229;-93
2023/04/27 11:37:07;;;;;;;4.45;3.22;;;16.00;20.70;;;;;;5059878;28;20244;-93
2023/04/27 11:39:35;;;;;;;5.25;3.42;;;15.90;21.00;;;;;;5065066;28;20264;-95
2023/04/27 11:42:21;;;;;;;5.40;3.47;;;15.90;20.10;;;;;;5062476;28;20249;-93
2023/04/27 11:44:56;;;;;;;6.22;3.45;;;15.50;20.50;;;;;;5057993;28;20198;-93
2023/04/27 11:47:23;;;;;;;5.03;3.35;;;15.30;21.10;;;;;;5238006;22;20273;-91
2023/04/27 11:49:51;;;;;;;6.00;3.75;;;15.40;21.90;;;;;;5068954;28;20224;-92
2023/04/27 11:52:18;;;;;;;4.65;2.95;;;15.90;20.20;;;;;;5068998;28;20196;-93
2023/04/27 11:54:51;;;;;;;5.22;3.20;;;16.10;19.90;;;;;;5068971;28;20199;-91
2023/04/27 11:57:27;;;;;;;5.70;3.80;;;16.40;20.70;;;;;;5049384;28;20228;-93
2023/04/27 12:02:49;;;;;;;5.57;3.55;;;16.70;20.20;;;;;;5840426;22;20202;-91
2023/04/27 12:05:18;;;;;;;5.03;3.65;;;16.50;19.30;;;;;;5295659;22;20229;-92
2023/04/27 12:07:45;;;;;;;4.60;3.30;;;16.40;19.50;;;;;;5053028;28;20198;-93
2023/04/27 12:10:13;;;;;;;4.03;3.30;;;16.20;20.20;;;;;;5067865;28;20196;-92
2023/04/27 12:15:22;;;;;;;4.75;2.83;;;16.20;18.90;;;;;;5069080;28;20194;-92
2023/04/27 12:17:50;;;;;;;5.03;3.03;;;16.30;19.70;;;;;;5585640;22;20223;-92
2023/04/27 12:23:12;;;;;;;4.80;2.40;;;16.40;19.90;;;;;;5545913;22;20265;-93
2023/04/27 12:25:39;;;;;;;3.08;2.70;;;16.30;20.30;;;;;;5057412;28;20206;-93
2023/04/27 12:28:08;;;;;;;5.05;2.70;;;16.30;20.70;;;;;;5132255;22;20259;-93
2023/04/27 12:30:35;;;;;;;3.88;3.42;;;16.70;21.00;;;;;;5394353;22;20205;-93
2023/04/27 12:33:08;;;;;;;5.85;3.13;;;17.20;20.80;;;;;;5366262;22;20269;-91
2023/04/27 12:35:35;;;;;;;4.75;3.08;;;17.40;19.40;;;;;;5067650;28;20174;-92
2023/04/27 12:38:03;;;;;;;5.55;3.70;;;17.40;18.20;;;;;;5085563;23;20233;-92
2023/04/27 12:40:30;;;;;;;6.35;3.40;;;17.20;19.20;;;;;;5062495;28;20226;-92
2023/04/27 12:42:58;;;;;;;5.18;2.80;;;17.00;18.80;;;;;;5036921;28;20204;-93
2023/04/27 12:45:26;;;;;;;3.75;2.83;;;17.10;18.40;;;;;;5021147;28;20194;-92
2023/04/27 12:47:53;;;;;;;3.50;2.67;;;17.20;19.80;;;;;;5033482;28;20213;-91
2023/04/27 12:50:20;;;;;;;4.85;3.10;;;17.20;20.60;;;;;;5037748;28;20191;-92
2023/04/27 12:52:49;;;;;;;4.22;3.20;;;17.30;20.00;;;;;;5039560;28;20229;-92
2023/04/27 12:55:16;;;;;;;4.05;2.85;;;17.60;20.90;;;;;;5042132;28;20194;-96
2023/04/27 12:57:43;;;;;;;3.92;2.70;;;17.50;19.10;;;;;;5039276;28;20845;-92
2023/04/27 13:00:12;;;;;;;3.85;2.83;;;17.40;18.60;;;;;;5018218;28;20210;-92
2023/04/27 13:02:42;;;;;;;4.80;3.13;;;17.50;17.60;;;;;;5043727;28;20200;-94
2023/04/27 13:05:10;;;;;;;3.95;2.97;;;17.30;18.60;;;;;;5052738;28;20213;-94
2023/04/27 13:07:37;;;;;;;4.90;2.80;;;17.30;17.70;;;;;;5046719;28;20202;-96
2023/04/27 13:10:06;;;;;;;4.00;3.03;;;17.30;18.50;;;;;;5339334;22;20208;-93
2023/04/27 13:12:33;;;;;;;3.45;2.47;;;17.10;17.60;;;;;;5056166;28;20674;-93
2023/04/27 13:15:00;;;;;;;3.88;2.92;;;17.30;18.00;;;;;;5060242;28;20208;-91
2023/04/27 13:17:27;;;;;;;5.40;3.20;;;17.40;17.50;;;;;;5049934;28;20214;-94
2023/04/27 13:22:36;;;;;;;5.25;2.60;;;17.20;18.20;;;;;;5043324;28;20228;-92
2023/04/27 13:25:03;;;;;;;4.82;2.90;;;17.00;19.30;;;;;;5050655;28;20202;-92
2023/04/27 13:27:31;;;;;;;4.40;2.97;;;16.90;20.00;;;;;;5052718;28;20194;-92
2023/04/27 13:29:58;;;;;;;4.30;2.90;;;16.70;19.20;;;;;;5051556;28;20614;-93
2023/04/27 13:32:26;;;;;;;4.03;3.10;;;16.60;21.20;;;;;;5048307;28;20232;-92
2023/04/27 13:34:53;;;;;;;4.78;3.00;;;16.70;21.00;;;;;;5049931;28;20213;-92
2023/04/27 13:37:22;;;;;;;3.60;2.80;;;16.90;19.10;;;;;;5050580;28;20212;-89
2023/04/27 13:39:49;;;;;;;4.57;2.90;;;17.00;19.20;;;;;;5053555;28;20343;-89
2023/04/27 13:42:16;;;;;;;5.40;3.03;;;16.90;19.20;;;;;;5046976;28;20233;-89
2023/04/27 13:44:47;;;;;;;4.55;2.78;;;16.70;19.20;;;;;;5042526;28;20194;-90
2023/04/27 13:47:15;;;;;;;5.60;3.10;;;16.70;19.50;;;;;;5030183;28;20697;-89
2023/04/27 13:49:44;;;;;;;4.20;3.17;;;16.70;19.70;;;;;;5046844;28;20290;-88
2023/04/27 13:52:14;;;;;;;7.03;3.38;;;16.80;19.70;;;;;;5038050;28;20186;-94
2023/04/27 14:03:08;;;;;;;4.70;3.20;;;17.00;19.30;;;;;;5056413;28;20249;-96
2023/04/27 14:05:36;;;;;;;6.25;2.80;;;17.00;19.40;;;;;;5056135;28;20256;-93
2023/04/27 14:08:05;;;;;;;3.42;2.60;;;16.70;20.00;;;;;;5052133;28;20208;-95
2023/04/27 14:13:26;;;;;;;4.80;2.38;;;16.70;20.00;;;;;;5056064;28;20221;-94
2023/04/27 14:15:54;;;;;;;6.28;2.78;;;16.70;21.50;;;;;;5044683;28;21202;-94
2023/04/27 14:18:20;;;;;;;4.03;2.53;;;16.80;20.90;;;;;;5057408;28;20222;-95
2023/04/27 14:20:47;;;;;;;4.30;2.50;;;16.90;19.40;;;;;;5053463;28;20273;-92
2023/04/27 14:23:14;;;;;;;5.28;2.50;;;17.10;19.60;;;;;;5059460;28;20182;-93
2023/04/27 14:25:43;;;;;;;5.50;2.60;;;17.10;20.20;;;;;;5056267;28;20200;-95
2023/04/27 14:28:11;;;;;;;3.85;3.00;;;17.20;19.00;;;;;;5150714;22;20175;-95
2023/04/27 14:30:40;;;;;;;5.03;2.70;;;17.30;19.10;;;;;;5019681;28;20283;-95
2023/04/27 14:33:07;;;;;;;4.55;3.03;;;17.30;20.00;;;;;;5038410;28;20198;-91
2023/04/27 14:35:35;;;;;;;4.28;2.70;;;17.20;21.60;;;;;;5034035;28;20257;-92
2023/04/27 14:38:03;;;;;;;4.85;2.90;;;17.00;18.70;;;;;;5043127;28;20241;-93
2023/04/27 14:40:30;;;;;;;3.97;2.78;;;17.00;18.90;;;;;;5034288;28;20199;-94
2023/04/27 14:42:59;;;;;;;4.35;2.80;;;16.80;18.60;;;;;;5035170;28;20225;-94
2023/04/27 14:45:26;;;;;;;3.63;2.70;;;16.90;18.70;;;;;;5011347;28;20234;-93
2023/04/27 14:47:53;;;;;;;2.60;2.40;;;16.90;19.70;;;;;;5037548;28;20285;-93
2023/04/27 14:50:20;;;;;;;6.75;3.75;;;16.80;19.50;;;;;;5025836;28;20245;-92
2023/04/27 14:52:48;;;;;;;4.65;2.22;;;17.00;20.20;;;;;;5027312;28;20208;-89
2023/04/27 14:55:16;;;;;;;2.72;2.13;;;17.00;20.00;;;;;;5031955;28;20226;-89
2023/04/27 14:57:43;;;;;;;7.20;2.50;;;16.90;20.80;;;;;;5033144;28;20194;-91
2023/04/27 15:00:13;;;;;;;3.80;2.45;;;16.80;20.50;;;;;;5032480;28;20708;-92
2023/04/27 15:02:41;;;;;;;4.10;2.50;;;16.80;20.30;;;;;;5029992;28;20214;-90
2023/04/27 15:05:09;;;;;;;2.97;2.60;;;16.70;19.80;;;;;;5027278;28;20260;-95
2023/04/27 15:07:36;;;;;;;3.33;2.25;;;17.00;18.90;;;;;;5033408;28;20198;-96
2023/04/27 15:10:03;;;;;;;3.35;2.60;;;17.20;19.60;;;;;;5030120;28;20286;-90
2023/04/27 15:12:30;;;;;;;3.70;2.20;;;17.10;18.30;;;;;;5026284;28;20202;-91
2023/04/27 15:14:57;;;;;;;6.55;2.42;;;17.20;19.60;;;;;;5028076;28;20606;-91
2023/04/27 15:17:26;;;;;;;2.95;2.30;;;17.50;19.30;;;;;;5032738;28;20238;-92
2023/04/27 15:19:54;;;;;;;3.45;2.20;;;17.60;20.00;;;;;;5027368;28;20198;-92
2023/04/27 15:22:22;;;;;;;4.05;2.70;;;17.60;20.50;;;;;;5026152;28;20225;-92
2023/04/27 15:24:51;;;;;;;2.80;2.17;;;17.40;20.20;;;;;;5031895;28;20225;-93
2023/04/27 15:27:18;;;;;;;3.00;2.35;;;17.50;20.90;;;;;;5022996;28;20202;-93
2023/04/27 15:32:16;;;;;;;3.08;2.40;;;17.50;20.10;;;;;;5079606;28;20224;-93
2023/04/27 15:34:45;;;;;;;4.25;2.50;;;17.40;20.70;;;;;;5073196;28;20204;-91
2023/04/27 15:37:14;;;;;;;5.00;2.75;;;17.30;20.70;;;;;;5062895;28;20232;-91
2023/04/27 15:39:41;;;;;;;3.13;2.15;;;17.10;21.60;;;;;;5066225;28;20284;-91
2023/04/27 15:42:08;;;;;;;3.55;2.47;;;17.00;22.00;;;;;;5072704;28;20220;-91
2023/04/27 15:44:35;;;;;;;4.55;2.30;;;16.90;22.40;;;;;;5073380;28;20190;-90
2023/04/27 15:47:02;;;;;;;2.90;2.30;;;16.70;23.00;;;;;;5073145;28;20577;-93
2023/04/27 15:49:30;;;;;;;3.90;2.40;;;16.50;22.90;;;;;;5071875;28;20197;-93
2023/04/27 15:51:58;;;;;;;3.40;2.47;;;16.20;23.80;;;;;;5079046;28;20253;-94
2023/04/27 15:54:25;;;;;;;7.68;2.72;;;16.20;24.50;;;;;;5154546;22;20232;-92
2023/04/27 15:56:52;;;;;;;2.85;2.40;;;16.10;25.20;;;;;;5097688;28;20195;-90
2023/04/27 15:59:19;;;;;;;3.40;2.20;;;16.10;24.90;;;;;;5080494;28;20608;-89
2023/04/27 16:01:46;;;;;;;3.70;2.42;;;15.90;25.90;;;;;;5073581;28;20221;-89
2023/04/27 16:04:13;;;;;;;5.45;2.47;;;15.90;25.50;;;;;;5081426;28;20225;-91
2023/04/27 16:06:40;;;;;;;5.07;2.40;;;15.90;25.70;;;;;;5069451;28;20197;-91
2023/04/27 16:09:10;;;;;;;4.55;2.47;;;16.00;25.10;;;;;;5084191;28;20462;-90
2023/04/27 16:11:37;;;;;;;4.07;2.45;;;16.10;25.30;;;;;;5071332;28;20201;-90
2023/04/27 16:14:06;;;;;;;3.58;2.30;;;16.10;25.30;;;;;;5077900;28;20275;-90
2023/04/27 16:16:33;;;;;;;4.57;2.28;;;16.10;25.40;;;;;;5072158;28;20197;-94
2023/04/27 16:19:00;;;;;;;4.35;2.60;;;16.10;24.70;;;;;;5065195;28;20232;-95
2023/04/27 16:21:28;;;;;;;6.53;2.45;;;16.20;24.90;;;;;;5074347;28;20225;-92
2023/04/27 16:23:55;;;;;;;4.60;2.50;;;16.00;25.00;;;;;;5067962;28;20212;-92
2023/04/27 16:26:24;;;;;;;3.17;2.65;;;15.90;25.30;;;;;;5079402;28;20189;-94
2023/04/27 16:28:50;;;;;;;2.67;2.20;;;15.70;26.70;;;;;;5078191;28;20177;-92
2023/04/27 16:31:18;;;;;;;4.40;2.10;;;15.60;27.50;;;;;;5076062;28;20209;-93
2023/04/27 16:33:45;;;;;;;3.92;2.33;;;15.60;27.00;;;;;;5076380;28;20682;-92
2023/04/27 16:36:12;;;;;;;3.45;2.20;;;15.50;26.70;;;;;;5078235;28;20279;-91